x

South Santa Rosa Is. Ca (46069) Wave Buoy

10:50 - Wed 6th May 2015 All times are PDT. -7 hours from GMT.

  • Sig Wave height 11.2ft
  • Peak Period 10s
  • Average Period 7s
  • Wind
    25mph, 31mph gusts
  • Sea Temp 59°f
  • Aire Temp 57°f
  • Sea Pressure 1012mb
  • South Santa Rosa Is. Ca
  • South Santa Rosa Is. Ca

More Historic Weather Station data

Upgrade to MSW Pro to gain access to the past 30 days of data for over 8000 Wavebouys and Weather Stations around the globe.

Join Pro

Comparision Forecast

View Surf forecast
   
mié 05/06 10:50 11ft 10s 7s 25 31 mph 1012mb 59f 57f
9:50 10ft 11s 7s 22 27 mph 1012mb 59f 57f
8:50 11ft 11s 7s 25 31 mph 1011.6mb 59f 57f
7:50 11ft 11s 7s 25 34 mph 1010.9mb 59f 57f
6:50 11ft 12s 7s 25 29 mph 1011mb 60f 57f
5:50 10.5ft 11s 7s 25 29 mph 1011.3mb 60f 57f
4:50 10.5ft 11s 7s 25 29 mph 1011.7mb 60f 57f
3:50 9.5ft 13s 7s 25 29 mph 1012mb 60f 57f
2:50 11ft 11s 7s 22 27 mph 1012.5mb 60f 56f
1:50 10ft 10s 7s 25 29 mph 1012.5mb 60f 56f
12:50 11ft 12s 7s 22 27 mph 1013.1mb 60f 56f
11:50 10ft 12s 7s 22 27 mph 1013.3mb 60f 56f
10:50 10ft 9s 7s 25 27 mph 1013.3mb 60f 56f
9:50 9ft 8s 7s 22 27 mph 1013.3mb 60f 56f
8:50 10ft 13s 7s 22 27 mph 1013.3mb 60f 56f
7:50 9ft 14s 7s 22 27 mph 1013.2mb 60f 56f
6:50 10.5ft 14s 8s 22 27 mph 1013mb 60f 56f
5:50 9.5ft 14s 7s 20 27 mph 1012.8mb 60f 56f
4:50 9ft 15s 7s 22 27 mph 1012.8mb 60f 56f
3:50 10ft 14s 7s 22 29 mph 1013.1mb 60f 56f
2:50 10ft 14s 7s 25 29 mph 1013.4mb 60f 56f
1:50 10.5ft 14s 8s 22 29 mph 1014mb 60f 56f
12:50 10.5ft 14s 7s 25 29 mph 1014mb 60f 56f
mar 05/05 11:50 9ft 14s 7s 22 27 mph 1014.4mb 60f 56f
10:50 10ft 14s 7s 22 27 mph 1014.6mb 60f 56f
9:50 9.5ft 14s 7s 22 29 mph 1014.6mb 60f 56f
8:50 9ft 9s 7s 25 29 mph 1014.2mb 61f 57f
7:50 9ft 16s 7s 22 27 mph 1013.8mb 61f 57f
6:50 8.5ft 15s 7s 20 25 mph 1013.8mb 61f 57f
5:50 8ft 15s 7s 20 25 mph 1014.1mb 61f 58f
4:50 8ft 16s 8s 20 25 mph 1014.3mb 61f 57f
3:50 8ft 16s 8s 18 22 mph 1014.6mb 61f 57f
2:50 8ft 15s 8s 18 20 mph 1014.8mb 61f 57f
1:50 7.5ft 16s 7s 18 20 mph 1015.1mb 61f 57f
12:50 7.5ft 16s 7s 16 18 mph 1015.6mb 60f 57f
11:50 7ft 17s 7s 16 18 mph 1015.7mb 60f 56f
10:50 7.5ft 16s 7s 16 20 mph 1015.8mb 60f 56f
9:50 7ft 17s 8s 16 18 mph 1015.5mb 60f 56f
8:50 7ft 17s 7s 16 20 mph 1015.5mb 60f 56f
7:50 7ft 17s 7s 16 20 mph 1015.4mb 60f 56f
6:50 7.5ft 17s 7s 16 20 mph 1015mb 60f 56f
5:50 7ft 17s 7s 16 20 mph 1014.8mb 60f 56f
4:50 7ft 17s 7s 16 18 mph 1014.9mb 60f 56f
3:50 8ft 17s 7s 18 22 mph 1014.7mb 60f 56f
2:50 7.5ft 17s 7s 20 22 mph 1014.6mb 61f 57f
1:50 8ft 17s 8s 18 22 mph 1014.7mb 61f 57f
12:50 8ft 17s 7s 18 20 mph 1015mb 61f 57f
lun 05/04 11:50 8.5ft 17s 7s 22 27 mph 1014.5mb 61f 58f
10:50 7.5ft 19s 7s 20 25 mph 1014.7mb 61f 58f
9:50 7ft 17s 6s 20 22 mph 1014.9mb 61f 58f
8:50 7ft 17s 7s 20 25 mph 1014.2mb 61f 58f
7:50 7.5ft 19s 7s 20 22 mph 1013.9mb 61f 58f
6:50 7.5ft 19s 8s 18 22 mph 1013.9mb 62f 58f
5:50 8ft 17s 8s 18 22 mph 1014.2mb 62f 58f
4:50 7ft 19s 9s 16 20 mph 1014.4mb 62f 58f
3:50 7ft 19s 9s 13 18 mph 1014.7mb 62f 58f
2:50 7ft 19s 9s 11 13 mph 1015.2mb 62f 58f
1:50 7ft 19s 9s 9 11 mph 1015.5mb 61f 58f
12:50 7ft 19s 9s 9 11 mph 1015.7mb 61f 58f
11:50 7ft 19s 8s 11 16 mph 1015.7mb 61f 57f
10:50 7ft 12s 8s 11 16 mph 1015.4mb 61f 57f
9:50 7ft 11s 8s 11 16 mph 1014.7mb 61f 57f
8:50 8ft 19s 9s 13 18 mph 1014.4mb 61f 57f
7:50 8.5ft 19s 9s 13 16 mph 1014.1mb 61f 57f
6:50 7.5ft 15s 8s 13 18 mph 1013.7mb 61f 57f
5:50 8ft 19s 8s 16 20 mph 1013.2mb 61f 57f
4:50 8ft 19s 8s 16 20 mph 1012.8mb 61f 57f
3:50 9ft 19s 9s 18 22 mph 1012.7mb 61f 57f
2:50 7.5ft 16s 8s 18 22 mph 1012.6mb 61f 58f
1:50 8ft 21s 8s 18 22 mph 1012.8mb 61f 58f
12:50 9ft 12s 9s 20 25 mph 1012.8mb 61f 58f
dom 05/03 11:50 8ft 12s 8s 20 25 mph 1012.5mb 61f 58f
10:50 7ft 21s 8s 20 22 mph 1012.4mb 61f 58f
9:50 7ft 21s 8s 18 22 mph 1012.1mb 61f 58f
8:50 6ft 10s 7s 18 20 mph 1011.8mb 61f 58f
7:50 8ft 21s 9s 16 20 mph 1011.3mb 62f 58f
6:50 7ft 21s  -  16 18 mph 1011.3mb 62f 59f
5:50 7ft 21s 9s 11 16 mph 1012mb 62f 59f
4:50 8ft 21s 10s 11 13 mph 1012.5mb 62f 58f
3:50 7ft 21s 10s 9 13 mph 1012.9mb 62f 59f
2:50 7.5ft 10s 9s 9 13 mph 1013.6mb 62f 58f
1:50 8ft 9s 10s 7 11 mph 1013.9mb 62f 58f
12:50 7ft 11s 9s 9 11 mph 1014.4mb 61f 58f
11:50 6ft 10s 9s 7 9 mph 1014.6mb 61f 58f
10:50 7ft 24s 10s 7 9 mph 1014.4mb 61f 57f
9:50 5.5ft 10s 8s 7 11 mph 1013.9mb 61f 57f
8:50 6ft 10s 8s 9 11 mph 1013.4mb 61f 57f
7:50 5.5ft 10s 7s 9 13 mph 1013mb 61f 57f